Terminal Aerodrome Forecast
Issued by NWS

Home | Current Version | Previous Version | Text Only | Print | Product List | Glossary On
Versions: 1 2 3 4 5 6 7 8 9 10 11 12 13
000
FTUS45 KFGZ 220539
TAFPRC
TAF
KPRC 220539Z 2206/2306 20005KT P6SM SCT150
     FM221400 18010KT P6SM SCT050
     FM221800 19015G25KT P6SM VCSH BKN045 BKN090
      TEMPO 2219/2223 5SM -SHRA OVC045
     FM230300 21006KT P6SM BKN045 BKN090=

USA.gov is the U.S. government's official web portal to all federal, state and local government web resources and services.